sensor_id;sensor_type;location;lat;lon;timestamp;temperature;humidity
17998;DHT22;9124;48.144;17.098;2024-02-26T00:00:53;5.40;99.90
17998;DHT22;9124;48.144;17.098;2024-02-26T00:05:19;5.40;99.90
17998;DHT22;9124;48.144;17.098;2024-02-26T00:09:46;5.40;99.90
17998;DHT22;9124;48.144;17.098;2024-02-26T00:14:12;5.50;99.90
17998;DHT22;9124;48.144;17.098;2024-02-26T00:18:40;5.50;99.90
17998;DHT22;9124;48.144;17.098;2024-02-26T00:23:06;5.50;99.90
17998;DHT22;9124;48.144;17.098;2024-02-26T00:27:33;5.50;99.90
17998;DHT22;9124;48.144;17.098;2024-02-26T00:31:59;5.50;99.90
17998;DHT22;9124;48.144;17.098;2024-02-26T00:36:26;5.50;99.90
17998;DHT22;9124;48.144;17.098;2024-02-26T00:40:53;5.40;99.90
17998;DHT22;9124;48.144;17.098;2024-02-26T00:45:20;5.50;99.90
17998;DHT22;9124;48.144;17.098;2024-02-26T00:49:47;5.60;99.90
17998;DHT22;9124;48.144;17.098;2024-02-26T00:54:13;6.00;99.90
17998;DHT22;9124;48.144;17.098;2024-02-26T00:58:40;6.10;99.90
17998;DHT22;9124;48.144;17.098;2024-02-26T01:03:06;6.20;99.90
17998;DHT22;9124;48.144;17.098;2024-02-26T01:07:33;6.00;99.90
17998;DHT22;9124;48.144;17.098;2024-02-26T01:12:01;5.70;99.90
17998;DHT22;9124;48.144;17.098;2024-02-26T01:16:29;5.60;99.90
17998;DHT22;9124;48.144;17.098;2024-02-26T01:20:55;5.40;99.90
17998;DHT22;9124;48.144;17.098;2024-02-26T01:25:22;5.40;99.90
17998;DHT22;9124;48.144;17.098;2024-02-26T01:29:48;5.30;99.90
17998;DHT22;9124;48.144;17.098;2024-02-26T01:34:14;5.30;99.90
17998;DHT22;9124;48.144;17.098;2024-02-26T01:38:44;5.20;99.90
17998;DHT22;9124;48.144;17.098;2024-02-26T01:43:10;5.20;99.90
17998;DHT22;9124;48.144;17.098;2024-02-26T01:47:39;5.20;99.90
17998;DHT22;9124;48.144;17.098;2024-02-26T01:52:07;5.10;99.90
17998;DHT22;9124;48.144;17.098;2024-02-26T01:56:36;5.00;99.90
17998;DHT22;9124;48.144;17.098;2024-02-26T02:01:03;5.00;99.90
17998;DHT22;9124;48.144;17.098;2024-02-26T02:05:30;5.00;99.90
17998;DHT22;9124;48.144;17.098;2024-02-26T02:09:57;5.00;99.90
17998;DHT22;9124;48.144;17.098;2024-02-26T02:14:25;5.00;99.90
17998;DHT22;9124;48.144;17.098;2024-02-26T02:18:51;5.00;99.90
17998;DHT22;9124;48.144;17.098;2024-02-26T02:23:18;5.10;99.90
17998;DHT22;9124;48.144;17.098;2024-02-26T02:27:44;5.10;99.90
17998;DHT22;9124;48.144;17.098;2024-02-26T02:32:12;5.10;99.90
17998;DHT22;9124;48.144;17.098;2024-02-26T02:36:52;5.00;99.90
17998;DHT22;9124;48.144;17.098;2024-02-26T02:41:19;4.90;99.90
17998;DHT22;9124;48.144;17.098;2024-02-26T02:45:46;5.00;99.90
17998;DHT22;9124;48.144;17.098;2024-02-26T02:50:12;5.20;99.90
17998;DHT22;9124;48.144;17.098;2024-02-26T02:54:39;5.40;99.90
17998;DHT22;9124;48.144;17.098;2024-02-26T02:59:07;5.60;99.90
17998;DHT22;9124;48.144;17.098;2024-02-26T03:03:35;5.50;99.90
17998;DHT22;9124;48.144;17.098;2024-02-26T03:08:03;5.50;99.90
17998;DHT22;9124;48.144;17.098;2024-02-26T03:12:30;5.40;99.90
17998;DHT22;9124;48.144;17.098;2024-02-26T03:16:56;5.40;99.90
17998;DHT22;9124;48.144;17.098;2024-02-26T03:21:26;5.30;99.90
17998;DHT22;9124;48.144;17.098;2024-02-26T03:25:53;5.20;99.90
17998;DHT22;9124;48.144;17.098;2024-02-26T03:30:22;5.10;99.90
17998;DHT22;9124;48.144;17.098;2024-02-26T03:34:48;5.10;99.90
17998;DHT22;9124;48.144;17.098;2024-02-26T03:39:15;5.20;99.90
17998;DHT22;9124;48.144;17.098;2024-02-26T03:43:42;5.30;99.90
17998;DHT22;9124;48.144;17.098;2024-02-26T03:48:09;5.30;99.90
17998;DHT22;9124;48.144;17.098;2024-02-26T03:52:35;5.20;99.90
17998;DHT22;9124;48.144;17.098;2024-02-26T03:57:02;5.20;99.90
17998;DHT22;9124;48.144;17.098;2024-02-26T04:01:28;5.10;99.90
17998;DHT22;9124;48.144;17.098;2024-02-26T04:05:58;5.00;99.90
17998;DHT22;9124;48.144;17.098;2024-02-26T04:10:24;4.90;99.90
17998;DHT22;9124;48.144;17.098;2024-02-26T04:14:51;4.80;99.90
17998;DHT22;9124;48.144;17.098;2024-02-26T04:19:18;4.80;99.90
17998;DHT22;9124;48.144;17.098;2024-02-26T04:23:49;4.90;99.90
17998;DHT22;9124;48.144;17.098;2024-02-26T04:28:15;5.00;99.90
17998;DHT22;9124;48.144;17.098;2024-02-26T04:32:44;5.00;99.90
17998;DHT22;9124;48.144;17.098;2024-02-26T04:37:11;5.10;99.90
17998;DHT22;9124;48.144;17.098;2024-02-26T04:41:37;5.00;99.90
17998;DHT22;9124;48.144;17.098;2024-02-26T04:46:04;5.00;99.90
17998;DHT22;9124;48.144;17.098;2024-02-26T04:50:30;5.00;99.90
17998;DHT22;9124;48.144;17.098;2024-02-26T04:54:56;4.90;99.90
17998;DHT22;9124;48.144;17.098;2024-02-26T04:59:23;4.90;99.90
17998;DHT22;9124;48.144;17.098;2024-02-26T05:03:49;4.90;99.90
17998;DHT22;9124;48.144;17.098;2024-02-26T05:08:16;4.90;99.90
17998;DHT22;9124;48.144;17.098;2024-02-26T05:12:42;4.90;99.90
17998;DHT22;9124;48.144;17.098;2024-02-26T05:17:08;4.80;99.90
17998;DHT22;9124;48.144;17.098;2024-02-26T05:21:35;4.80;99.90
17998;DHT22;9124;48.144;17.098;2024-02-26T05:26:01;4.80;99.90
17998;DHT22;9124;48.144;17.098;2024-02-26T05:30:30;4.70;99.90
17998;DHT22;9124;48.144;17.098;2024-02-26T05:34:56;4.70;99.90
17998;DHT22;9124;48.144;17.098;2024-02-26T05:39:23;4.70;99.90
17998;DHT22;9124;48.144;17.098;2024-02-26T05:43:50;4.60;99.90
17998;DHT22;9124;48.144;17.098;2024-02-26T05:48:16;4.60;99.90
17998;DHT22;9124;48.144;17.098;2024-02-26T05:52:43;4.60;99.90
17998;DHT22;9124;48.144;17.098;2024-02-26T05:57:11;4.60;99.90
17998;DHT22;9124;48.144;17.098;2024-02-26T06:01:37;4.60;99.90
17998;DHT22;9124;48.144;17.098;2024-02-26T06:06:05;4.70;99.90
17998;DHT22;9124;48.144;17.098;2024-02-26T06:10:31;4.80;99.90
17998;DHT22;9124;48.144;17.098;2024-02-26T06:14:59;4.70;99.90
17998;DHT22;9124;48.144;17.098;2024-02-26T06:19:27;4.70;99.90
17998;DHT22;9124;48.144;17.098;2024-02-26T06:23:54;4.80;99.90
17998;DHT22;9124;48.144;17.098;2024-02-26T06:28:20;4.90;99.90
17998;DHT22;9124;48.144;17.098;2024-02-26T06:32:47;5.00;99.90
17998;DHT22;9124;48.144;17.098;2024-02-26T06:37:13;5.10;99.90
17998;DHT22;9124;48.144;17.098;2024-02-26T06:41:39;5.20;99.90
17998;DHT22;9124;48.144;17.098;2024-02-26T06:46:06;5.40;99.90
17998;DHT22;9124;48.144;17.098;2024-02-26T06:50:33;5.70;99.90
17998;DHT22;9124;48.144;17.098;2024-02-26T06:54:59;6.30;99.90
17998;DHT22;9124;48.144;17.098;2024-02-26T06:59:25;6.70;99.90
17998;DHT22;9124;48.144;17.098;2024-02-26T07:03:52;7.30;99.90
17998;DHT22;9124;48.144;17.098;2024-02-26T07:08:18;7.60;99.90
17998;DHT22;9124;48.144;17.098;2024-02-26T07:12:45;7.60;99.90
17998;DHT22;9124;48.144;17.098;2024-02-26T07:17:11;7.60;99.90
17998;DHT22;9124;48.144;17.098;2024-02-26T07:21:38;7.60;99.90
17998;DHT22;9124;48.144;17.098;2024-02-26T07:26:05;7.60;99.90
17998;DHT22;9124;48.144;17.098;2024-02-26T07:30:36;7.70;99.90
17998;DHT22;9124;48.144;17.098;2024-02-26T07:35:03;7.80;99.90
17998;DHT22;9124;48.144;17.098;2024-02-26T07:39:29;7.90;99.90
17998;DHT22;9124;48.144;17.098;2024-02-26T07:43:55;8.10;99.90
17998;DHT22;9124;48.144;17.098;2024-02-26T07:48:24;8.20;99.90
17998;DHT22;9124;48.144;17.098;2024-02-26T07:52:50;8.40;99.90
17998;DHT22;9124;48.144;17.098;2024-02-26T07:57:19;8.50;99.90
17998;DHT22;9124;48.144;17.098;2024-02-26T08:01:51;8.80;99.90
17998;DHT22;9124;48.144;17.098;2024-02-26T08:06:20;9.00;99.90
17998;DHT22;9124;48.144;17.098;2024-02-26T08:10:46;9.20;99.90
17998;DHT22;9124;48.144;17.098;2024-02-26T08:15:13;9.60;99.90
17998;DHT22;9124;48.144;17.098;2024-02-26T08:19:39;9.90;99.90
17998;DHT22;9124;48.144;17.098;2024-02-26T08:24:06;10.30;99.90
17998;DHT22;9124;48.144;17.098;2024-02-26T08:28:32;10.60;99.90
17998;DHT22;9124;48.144;17.098;2024-02-26T08:32:58;11.10;99.90
17998;DHT22;9124;48.144;17.098;2024-02-26T08:37:26;15.10;99.90
17998;DHT22;9124;48.144;17.098;2024-02-26T08:41:52;19.90;97.80
17998;DHT22;9124;48.144;17.098;2024-02-26T08:46:21;23.00;90.80
17998;DHT22;9124;48.144;17.098;2024-02-26T08:50:47;24.70;78.30
17998;DHT22;9124;48.144;17.098;2024-02-26T08:55:14;27.20;71.10
17998;DHT22;9124;48.144;17.098;2024-02-26T08:59:40;27.30;64.50
17998;DHT22;9124;48.144;17.098;2024-02-26T09:04:06;27.70;60.40
17998;DHT22;9124;48.144;17.098;2024-02-26T09:08:33;27.10;53.50
17998;DHT22;9124;48.144;17.098;2024-02-26T09:13:04;27.80;55.00
17998;DHT22;9124;48.144;17.098;2024-02-26T09:17:31;28.80;52.50
17998;DHT22;9124;48.144;17.098;2024-02-26T09:21:58;29.30;51.30
17998;DHT22;9124;48.144;17.098;2024-02-26T09:26:24;29.10;46.90
17998;DHT22;9124;48.144;17.098;2024-02-26T09:30:52;28.50;45.70
17998;DHT22;9124;48.144;17.098;2024-02-26T09:35:18;29.20;46.10
17998;DHT22;9124;48.144;17.098;2024-02-26T09:39:44;28.90;43.70
17998;DHT22;9124;48.144;17.098;2024-02-26T09:44:13;28.50;44.10
17998;DHT22;9124;48.144;17.098;2024-02-26T09:48:44;28.20;42.90
17998;DHT22;9124;48.144;17.098;2024-02-26T09:53:12;27.10;42.20
17998;DHT22;9124;48.144;17.098;2024-02-26T09:57:44;27.20;42.90
17998;DHT22;9124;48.144;17.098;2024-02-26T10:02:14;27.30;42.00
17998;DHT22;9124;48.144;17.098;2024-02-26T10:06:44;27.50;41.40
17998;DHT22;9124;48.144;17.098;2024-02-26T10:11:11;28.40;41.40
17998;DHT22;9124;48.144;17.098;2024-02-26T10:15:38;27.90;40.00
17998;DHT22;9124;48.144;17.098;2024-02-26T10:20:16;28.10;39.90
17998;DHT22;9124;48.144;17.098;2024-02-26T10:24:49;28.50;39.60
17998;DHT22;9124;48.144;17.098;2024-02-26T10:29:15;29.40;39.90
17998;DHT22;9124;48.144;17.098;2024-02-26T10:33:45;28.80;39.10
17998;DHT22;9124;48.144;17.098;2024-02-26T10:38:12;28.30;38.70
17998;DHT22;9124;48.144;17.098;2024-02-26T10:42:46;27.20;37.60
17998;DHT22;9124;48.144;17.098;2024-02-26T10:47:12;27.00;38.30
17998;DHT22;9124;48.144;17.098;2024-02-26T10:51:41;26.30;37.10
17998;DHT22;9124;48.144;17.098;2024-02-26T10:56:10;25.60;37.80
17998;DHT22;9124;48.144;17.098;2024-02-26T11:00:39;24.90;38.10
17998;DHT22;9124;48.144;17.098;2024-02-26T11:05:07;23.80;38.40
17998;DHT22;9124;48.144;17.098;2024-02-26T11:09:34;23.60;39.50
17998;DHT22;9124;48.144;17.098;2024-02-26T11:14:03;23.40;39.40
17998;DHT22;9124;48.144;17.098;2024-02-26T11:18:33;23.20;40.20
17998;DHT22;9124;48.144;17.098;2024-02-26T11:23:00;22.70;40.20
17998;DHT22;9124;48.144;17.098;2024-02-26T11:27:31;22.30;40.50
17998;DHT22;9124;48.144;17.098;2024-02-26T11:32:00;21.80;40.80
17998;DHT22;9124;48.144;17.098;2024-02-26T11:36:27;21.30;41.20
17998;DHT22;9124;48.144;17.098;2024-02-26T11:40:54;20.10;40.70
17998;DHT22;9124;48.144;17.098;2024-02-26T11:50:34;17.80;43.30
17998;DHT22;9124;48.144;17.098;2024-02-26T11:55:04;17.10;44.20
17998;DHT22;9124;48.144;17.098;2024-02-26T12:00:10;16.70;44.80
17998;DHT22;9124;48.144;17.098;2024-02-26T12:04:38;16.30;46.00
17998;DHT22;9124;48.144;17.098;2024-02-26T12:09:05;16.10;46.60
17998;DHT22;9124;48.144;17.098;2024-02-26T12:13:32;15.90;47.40
17998;DHT22;9124;48.144;17.098;2024-02-26T12:18:00;15.70;47.80
17998;DHT22;9124;48.144;17.098;2024-02-26T12:22:28;15.60;48.40
17998;DHT22;9124;48.144;17.098;2024-02-26T12:26:54;15.60;48.70
17998;DHT22;9124;48.144;17.098;2024-02-26T12:31:21;15.60;49.00
17998;DHT22;9124;48.144;17.098;2024-02-26T12:35:49;15.70;49.20
17998;DHT22;9124;48.144;17.098;2024-02-26T12:40:17;15.90;49.20
17998;DHT22;9124;48.144;17.098;2024-02-26T12:44:47;16.00;49.20
17998;DHT22;9124;48.144;17.098;2024-02-26T12:49:17;16.10;49.00
17998;DHT22;9124;48.144;17.098;2024-02-26T12:53:46;16.00;49.10
17998;DHT22;9124;48.144;17.098;2024-02-26T12:58:13;15.90;49.30
17998;DHT22;9124;48.144;17.098;2024-02-26T13:02:42;16.00;49.50
17998;DHT22;9124;48.144;17.098;2024-02-26T13:07:10;15.90;49.30
17998;DHT22;9124;48.144;17.098;2024-02-26T13:11:39;15.70;49.10
17998;DHT22;9124;48.144;17.098;2024-02-26T13:16:09;15.50;49.30
17998;DHT22;9124;48.144;17.098;2024-02-26T13:20:37;15.30;49.40
17998;DHT22;9124;48.144;17.098;2024-02-26T13:25:05;15.10;49.30
17998;DHT22;9124;48.144;17.098;2024-02-26T13:29:33;15.10;48.90
17998;DHT22;9124;48.144;17.098;2024-02-26T13:34:02;15.10;48.20
17998;DHT22;9124;48.144;17.098;2024-02-26T13:38:29;15.10;48.30
17998;DHT22;9124;48.144;17.098;2024-02-26T13:42:55;15.10;48.20
17998;DHT22;9124;48.144;17.098;2024-02-26T13:47:21;15.20;48.40
17998;DHT22;9124;48.144;17.098;2024-02-26T13:51:49;15.10;48.50
17998;DHT22;9124;48.144;17.098;2024-02-26T13:56:16;15.10;48.70
17998;DHT22;9124;48.144;17.098;2024-02-26T14:00:43;15.00;48.60
17998;DHT22;9124;48.144;17.098;2024-02-26T14:05:09;15.10;48.70
17998;DHT22;9124;48.144;17.098;2024-02-26T14:09:36;15.10;48.30
17998;DHT22;9124;48.144;17.098;2024-02-26T14:14:02;15.10;48.40
17998;DHT22;9124;48.144;17.098;2024-02-26T14:18:29;15.10;48.40
17998;DHT22;9124;48.144;17.098;2024-02-26T14:22:55;15.00;48.60
17998;DHT22;9124;48.144;17.098;2024-02-26T14:27:22;14.90;48.70
17998;DHT22;9124;48.144;17.098;2024-02-26T14:31:48;14.80;48.90
17998;DHT22;9124;48.144;17.098;2024-02-26T14:36:15;14.70;49.00
17998;DHT22;9124;48.144;17.098;2024-02-26T14:40:41;14.60;49.10
17998;DHT22;9124;48.144;17.098;2024-02-26T14:45:11;14.50;49.20
17998;DHT22;9124;48.144;17.098;2024-02-26T14:49:37;14.40;49.60
17998;DHT22;9124;48.144;17.098;2024-02-26T14:54:03;14.20;49.90
17998;DHT22;9124;48.144;17.098;2024-02-26T14:58:30;14.10;50.20
17998;DHT22;9124;48.144;17.098;2024-02-26T15:02:59;14.00;50.50
17998;DHT22;9124;48.144;17.098;2024-02-26T15:07:25;13.90;50.70
17998;DHT22;9124;48.144;17.098;2024-02-26T15:11:52;13.90;50.90
17998;DHT22;9124;48.144;17.098;2024-02-26T15:16:19;13.80;51.00
17998;DHT22;9124;48.144;17.098;2024-02-26T15:20:47;13.70;51.20
17998;DHT22;9124;48.144;17.098;2024-02-26T15:25:13;13.60;51.30
17998;DHT22;9124;48.144;17.098;2024-02-26T15:29:39;13.50;51.50
17998;DHT22;9124;48.144;17.098;2024-02-26T15:34:07;13.40;51.90
17998;DHT22;9124;48.144;17.098;2024-02-26T15:38:33;13.30;52.10
17998;DHT22;9124;48.144;17.098;2024-02-26T15:43:00;13.10;52.30
17998;DHT22;9124;48.144;17.098;2024-02-26T15:47:26;13.00;52.70
17998;DHT22;9124;48.144;17.098;2024-02-26T15:51:53;12.90;52.80
17998;DHT22;9124;48.144;17.098;2024-02-26T15:56:19;12.80;53.10
17998;DHT22;9124;48.144;17.098;2024-02-26T16:00:53;12.60;53.40
17998;DHT22;9124;48.144;17.098;2024-02-26T16:05:19;12.50;53.60
17998;DHT22;9124;48.144;17.098;2024-02-26T16:09:53;12.30;53.70
17998;DHT22;9124;48.144;17.098;2024-02-26T16:14:47;12.10;54.00
17998;DHT22;9124;48.144;17.098;2024-02-26T16:19:15;12.00;54.30
17998;DHT22;9124;48.144;17.098;2024-02-26T16:23:43;11.90;54.50
17998;DHT22;9124;48.144;17.098;2024-02-26T16:28:10;11.80;54.50
17998;DHT22;9124;48.144;17.098;2024-02-26T16:32:36;11.70;54.80
17998;DHT22;9124;48.144;17.098;2024-02-26T16:37:08;11.70;54.70
17998;DHT22;9124;48.144;17.098;2024-02-26T16:41:36;11.60;54.80
17998;DHT22;9124;48.144;17.098;2024-02-26T16:46:03;11.60;55.10
17998;DHT22;9124;48.144;17.098;2024-02-26T16:50:30;11.60;55.20
17998;DHT22;9124;48.144;17.098;2024-02-26T16:54:56;11.50;55.40
17998;DHT22;9124;48.144;17.098;2024-02-26T16:59:23;11.50;55.30
17998;DHT22;9124;48.144;17.098;2024-02-26T17:03:54;11.50;55.40
17998;DHT22;9124;48.144;17.098;2024-02-26T17:08:20;11.40;55.50
17998;DHT22;9124;48.144;17.098;2024-02-26T17:12:47;11.40;55.60
17998;DHT22;9124;48.144;17.098;2024-02-26T17:17:13;11.40;55.80
17998;DHT22;9124;48.144;17.098;2024-02-26T17:21:40;11.30;55.80
17998;DHT22;9124;48.144;17.098;2024-02-26T17:26:06;11.20;56.20
17998;DHT22;9124;48.144;17.098;2024-02-26T17:30:37;11.20;56.40
17998;DHT22;9124;48.144;17.098;2024-02-26T17:35:04;11.00;56.70
17998;DHT22;9124;48.144;17.098;2024-02-26T17:39:31;11.00;56.80
17998;DHT22;9124;48.144;17.098;2024-02-26T17:43:58;11.00;57.10
17998;DHT22;9124;48.144;17.098;2024-02-26T17:48:24;11.00;57.30
17998;DHT22;9124;48.144;17.098;2024-02-26T17:52:50;10.90;57.10
17998;DHT22;9124;48.144;17.098;2024-02-26T17:57:20;10.80;57.40
17998;DHT22;9124;48.144;17.098;2024-02-26T18:01:47;10.80;57.40
17998;DHT22;9124;48.144;17.098;2024-02-26T18:06:15;10.80;57.60
17998;DHT22;9124;48.144;17.098;2024-02-26T18:10:41;10.90;57.60
17998;DHT22;9124;48.144;17.098;2024-02-26T18:15:11;10.90;57.50
17998;DHT22;9124;48.144;17.098;2024-02-26T18:19:37;10.80;57.50
17998;DHT22;9124;48.144;17.098;2024-02-26T18:24:05;10.70;57.60
17998;DHT22;9124;48.144;17.098;2024-02-26T18:28:31;10.50;57.70
17998;DHT22;9124;48.144;17.098;2024-02-26T18:32:58;10.40;58.00
17998;DHT22;9124;48.144;17.098;2024-02-26T18:37:25;10.40;58.10
17998;DHT22;9124;48.144;17.098;2024-02-26T18:41:51;10.40;58.60
17998;DHT22;9124;48.144;17.098;2024-02-26T18:46:21;10.50;58.70
17998;DHT22;9124;48.144;17.098;2024-02-26T18:50:47;10.30;58.80
17998;DHT22;9124;48.144;17.098;2024-02-26T18:55:14;10.30;58.90
17998;DHT22;9124;48.144;17.098;2024-02-26T18:59:40;10.20;59.00
17998;DHT22;9124;48.144;17.098;2024-02-26T19:04:09;10.10;59.20
17998;DHT22;9124;48.144;17.098;2024-02-26T19:08:35;9.90;59.40
17998;DHT22;9124;48.144;17.098;2024-02-26T19:13:07;9.80;59.80
17998;DHT22;9124;48.144;17.098;2024-02-26T19:17:33;9.90;60.30
17998;DHT22;9124;48.144;17.098;2024-02-26T19:21:59;9.90;60.20
17998;DHT22;9124;48.144;17.098;2024-02-26T19:26:26;9.90;60.20
17998;DHT22;9124;48.144;17.098;2024-02-26T19:30:53;9.90;60.50
17998;DHT22;9124;48.144;17.098;2024-02-26T19:35:19;10.00;61.10
17998;DHT22;9124;48.144;17.098;2024-02-26T19:39:48;10.00;60.80
17998;DHT22;9124;48.144;17.098;2024-02-26T19:44:14;9.90;60.80
17998;DHT22;9124;48.144;17.098;2024-02-26T19:48:41;9.90;61.10
17998;DHT22;9124;48.144;17.098;2024-02-26T19:53:08;9.90;61.20
17998;DHT22;9124;48.144;17.098;2024-02-26T19:57:34;9.90;61.40
17998;DHT22;9124;48.144;17.098;2024-02-26T20:02:00;9.90;61.40
17998;DHT22;9124;48.144;17.098;2024-02-26T20:06:27;9.80;61.50
17998;DHT22;9124;48.144;17.098;2024-02-26T20:10:53;9.90;61.80
17998;DHT22;9124;48.144;17.098;2024-02-26T20:15:24;10.10;62.10
17998;DHT22;9124;48.144;17.098;2024-02-26T20:19:50;10.30;61.90
17998;DHT22;9124;48.144;17.098;2024-02-26T20:24:23;10.30;61.70
17998;DHT22;9124;48.144;17.098;2024-02-26T20:28:50;10.30;61.80
17998;DHT22;9124;48.144;17.098;2024-02-26T20:33:19;10.20;61.80
17998;DHT22;9124;48.144;17.098;2024-02-26T20:37:46;10.10;61.90
17998;DHT22;9124;48.144;17.098;2024-02-26T20:42:12;10.10;62.10
17998;DHT22;9124;48.144;17.098;2024-02-26T20:46:43;10.10;62.20
17998;DHT22;9124;48.144;17.098;2024-02-26T20:51:10;10.10;62.10
17998;DHT22;9124;48.144;17.098;2024-02-26T20:55:37;10.10;62.10
17998;DHT22;9124;48.144;17.098;2024-02-26T21:00:09;10.10;62.10
17998;DHT22;9124;48.144;17.098;2024-02-26T21:04:38;10.20;62.40
17998;DHT22;9124;48.144;17.098;2024-02-26T21:09:05;10.20;62.50
17998;DHT22;9124;48.144;17.098;2024-02-26T21:13:32;10.30;62.40
17998;DHT22;9124;48.144;17.098;2024-02-26T21:17:58;10.30;62.40
17998;DHT22;9124;48.144;17.098;2024-02-26T21:22:25;10.30;62.40
17998;DHT22;9124;48.144;17.098;2024-02-26T21:26:52;10.20;62.50
17998;DHT22;9124;48.144;17.098;2024-02-26T21:31:19;10.20;62.60
17998;DHT22;9124;48.144;17.098;2024-02-26T21:35:48;10.10;62.80
17998;DHT22;9124;48.144;17.098;2024-02-26T21:40:15;10.10;62.80
17998;DHT22;9124;48.144;17.098;2024-02-26T21:44:43;10.10;62.80
17998;DHT22;9124;48.144;17.098;2024-02-26T21:49:10;10.00;62.90
17998;DHT22;9124;48.144;17.098;2024-02-26T21:53:37;10.00;63.00
17998;DHT22;9124;48.144;17.098;2024-02-26T21:58:03;10.00;63.20
17998;DHT22;9124;48.144;17.098;2024-02-26T22:02:30;9.90;63.10
17998;DHT22;9124;48.144;17.098;2024-02-26T22:06:57;9.90;63.30
17998;DHT22;9124;48.144;17.098;2024-02-26T22:11:23;9.90;63.30
17998;DHT22;9124;48.144;17.098;2024-02-26T22:15:49;10.00;63.50
17998;DHT22;9124;48.144;17.098;2024-02-26T22:20:16;10.10;63.40
17998;DHT22;9124;48.144;17.098;2024-02-26T22:24:42;10.10;63.30
17998;DHT22;9124;48.144;17.098;2024-02-26T22:29:09;10.10;63.30
17998;DHT22;9124;48.144;17.098;2024-02-26T22:33:35;10.10;63.30
17998;DHT22;9124;48.144;17.098;2024-02-26T22:38:01;10.00;63.50
17998;DHT22;9124;48.144;17.098;2024-02-26T22:42:30;10.10;63.50
17998;DHT22;9124;48.144;17.098;2024-02-26T22:46:56;10.00;63.40
17998;DHT22;9124;48.144;17.098;2024-02-26T22:51:23;10.00;63.60
17998;DHT22;9124;48.144;17.098;2024-02-26T22:55:49;9.90;63.70
17998;DHT22;9124;48.144;17.098;2024-02-26T23:00:18;9.90;63.80
17998;DHT22;9124;48.144;17.098;2024-02-26T23:05:05;9.90;63.90
17998;DHT22;9124;48.144;17.098;2024-02-26T23:09:32;9.80;64.10
17998;DHT22;9124;48.144;17.098;2024-02-26T23:14:00;9.80;64.00
17998;DHT22;9124;48.144;17.098;2024-02-26T23:18:29;9.70;64.10
17998;DHT22;9124;48.144;17.098;2024-02-26T23:22:56;9.60;64.30
17998;DHT22;9124;48.144;17.098;2024-02-26T23:27:22;9.40;64.50
17998;DHT22;9124;48.144;17.098;2024-02-26T23:31:49;9.30;64.70
17998;DHT22;9124;48.144;17.098;2024-02-26T23:36:15;9.30;64.80
17998;DHT22;9124;48.144;17.098;2024-02-26T23:40:42;9.20;64.90
17998;DHT22;9124;48.144;17.098;2024-02-26T23:45:08;9.20;65.30
17998;DHT22;9124;48.144;17.098;2024-02-26T23:49:35;9.30;65.70
17998;DHT22;9124;48.144;17.098;2024-02-26T23:54:01;9.20;65.40
17998;DHT22;9124;48.144;17.098;2024-02-26T23:58:27;9.10;65.50
